aviador You're here:

HEBA Decoded Metar

ALEXANDRIA BORG in EGYPT
Report Time2018-02-18 21:00:00
UTC Time2018-02-18 22:00:33
Flight Rules vfr VFR
Wind280° at 06 kt
W.Decomp.*RWY 32: 4.3 kt HW 4.2 kt LCW
W.Rank280° ranks 14
Current wind is below 280° avg. (9.3)
Visibility9999 m
Phenomena:N/A
Clouds:N/A
Expected CloudBase > 1,200 ft AGL from Temp-Dew spread
CeilingNone
Temp14°C (ISA -1)
Dew Point11°C (82% RH)
AAT12.2°C
QNH1017 hPa
Density Alt141 ft
Elevation177 ft
Report Wrong Elevation
Raw Report
HEBA 182100Z 28006KT CAVOK 14/11 Q1017 NOSIG=

Extra information for HEBA:More info

Metar Taf Metar & Taf Last 4 Metars F.Rules Stats Wind Profile Meteogram Temp Stats Airport Information Weather charts Add Link Nearby VenuesMetar ALERT Operation Metar Decoded Social comments